sensor_id;sensor_type;location;lat;lon;timestamp;temperature;humidity
42803;DHT22;28447;48.682;9.022;2023-04-03T06:07:12;3.20;99.90
42803;DHT22;28447;48.682;9.022;2023-04-03T06:09:38;3.30;99.90
42803;DHT22;28447;48.682;9.022;2023-04-03T06:12:04;3.30;99.90
42803;DHT22;28447;48.682;9.022;2023-04-03T06:14:30;3.10;99.90
42803;DHT22;28447;48.682;9.022;2023-04-03T06:16:56;3.20;99.90
42803;DHT22;28447;48.682;9.022;2023-04-03T06:19:22;3.30;99.90
42803;DHT22;28447;48.682;9.022;2023-04-03T06:21:48;3.30;99.90
42803;DHT22;28447;48.682;9.022;2023-04-03T06:24:16;3.30;99.90
42803;DHT22;28447;48.682;9.022;2023-04-03T06:26:42;3.40;99.90
42803;DHT22;28447;48.682;9.022;2023-04-03T06:29:08;3.50;99.90
42803;DHT22;28447;48.682;9.022;2023-04-03T06:31:34;3.50;99.90
42803;DHT22;28447;48.682;9.022;2023-04-03T06:34:02;3.60;99.90
42803;DHT22;28447;48.682;9.022;2023-04-03T06:36:28;3.60;99.90
42803;DHT22;28447;48.682;9.022;2023-04-03T06:38:54;3.90;99.90
42803;DHT22;28447;48.682;9.022;2023-04-03T06:41:20;3.70;99.90
42803;DHT22;28447;48.682;9.022;2023-04-03T06:43:47;3.70;99.90
42803;DHT22;28447;48.682;9.022;2023-04-03T06:46:17;3.60;99.90
42803;DHT22;28447;48.682;9.022;2023-04-03T06:48:43;3.80;99.90
42803;DHT22;28447;48.682;9.022;2023-04-03T06:51:25;4.10;99.90
42803;DHT22;28447;48.682;9.022;2023-04-03T06:53:52;4.20;99.90
42803;DHT22;28447;48.682;9.022;2023-04-03T06:56:19;4.20;99.90
42803;DHT22;28447;48.682;9.022;2023-04-03T06:58:45;4.10;99.90
42803;DHT22;28447;48.682;9.022;2023-04-03T07:01:13;4.10;99.90
42803;DHT22;28447;48.682;9.022;2023-04-03T07:03:40;3.80;99.90
42803;DHT22;28447;48.682;9.022;2023-04-03T07:06:06;4.00;99.90
42803;DHT22;28447;48.682;9.022;2023-04-03T07:08:34;4.30;99.90
42803;DHT22;28447;48.682;9.022;2023-04-03T07:11:00;4.10;99.90
42803;DHT22;28447;48.682;9.022;2023-04-03T07:13:26;4.50;99.90
42803;DHT22;28447;48.682;9.022;2023-04-03T07:15:52;4.50;99.90
42803;DHT22;28447;48.682;9.022;2023-04-03T07:18:18;4.60;99.90
42803;DHT22;28447;48.682;9.022;2023-04-03T07:20:43;4.60;99.90
42803;DHT22;28447;48.682;9.022;2023-04-03T07:23:09;4.80;99.90
42803;DHT22;28447;48.682;9.022;2023-04-03T07:25:36;4.60;99.90
42803;DHT22;28447;48.682;9.022;2023-04-03T07:28:03;4.50;99.90
42803;DHT22;28447;48.682;9.022;2023-04-03T07:30:29;4.60;99.90
42803;DHT22;28447;48.682;9.022;2023-04-03T07:32:55;4.30;99.90
42803;DHT22;28447;48.682;9.022;2023-04-03T07:35:20;4.30;99.90
42803;DHT22;28447;48.682;9.022;2023-04-03T07:37:46;4.90;99.90
42803;DHT22;28447;48.682;9.022;2023-04-03T07:40:12;4.80;99.90
42803;DHT22;28447;48.682;9.022;2023-04-03T07:42:38;4.50;99.90
42803;DHT22;28447;48.682;9.022;2023-04-03T07:45:04;4.80;99.90
42803;DHT22;28447;48.682;9.022;2023-04-03T07:47:30;5.10;99.90
42803;DHT22;28447;48.682;9.022;2023-04-03T07:49:56;4.90;99.90
42803;DHT22;28447;48.682;9.022;2023-04-03T07:52:23;5.10;99.90
42803;DHT22;28447;48.682;9.022;2023-04-03T07:54:48;5.50;99.90
42803;DHT22;28447;48.682;9.022;2023-04-03T07:57:14;5.90;99.90
42803;DHT22;28447;48.682;9.022;2023-04-03T07:59:40;5.70;99.90
42803;DHT22;28447;48.682;9.022;2023-04-03T08:02:09;6.20;99.90
42803;DHT22;28447;48.682;9.022;2023-04-03T08:04:35;6.00;99.90
42803;DHT22;28447;48.682;9.022;2023-04-03T08:07:01;6.20;99.90
42803;DHT22;28447;48.682;9.022;2023-04-03T08:09:27;6.10;99.90
42803;DHT22;28447;48.682;9.022;2023-04-03T08:11:52;6.50;99.90
42803;DHT22;28447;48.682;9.022;2023-04-03T08:14:19;6.10;99.90
42803;DHT22;28447;48.682;9.022;2023-04-03T08:16:47;6.00;99.90
42803;DHT22;28447;48.682;9.022;2023-04-03T08:19:13;6.00;99.90
42803;DHT22;28447;48.682;9.022;2023-04-03T08:21:41;5.70;99.90
42803;DHT22;28447;48.682;9.022;2023-04-03T08:24:07;5.80;99.90
42803;DHT22;28447;48.682;9.022;2023-04-03T08:26:34;6.10;99.90
42803;DHT22;28447;48.682;9.022;2023-04-03T08:31:26;6.30;99.90
42803;DHT22;28447;48.682;9.022;2023-04-03T08:41:33;6.30;99.90
42803;DHT22;28447;48.682;9.022;2023-04-03T08:59:35;6.50;99.90
42803;DHT22;28447;48.682;9.022;2023-04-03T21:44:22;2.00;99.90
42803;DHT22;28447;48.682;9.022;2023-04-03T21:46:49;1.90;99.90
42803;DHT22;28447;48.682;9.022;2023-04-03T21:49:22;1.80;99.90
42803;DHT22;28447;48.682;9.022;2023-04-03T21:51:49;1.70;99.90
42803;DHT22;28447;48.682;9.022;2023-04-03T21:54:16;1.60;99.90
42803;DHT22;28447;48.682;9.022;2023-04-03T21:56:41;1.70;99.90
42803;DHT22;28447;48.682;9.022;2023-04-03T21:59:07;1.70;99.90
